Terminal Aerodrome Forecast
Issued by NWS Pendleton, OR

Home | Current Version | Previous Version | Text Only | Print | Product List | Glossary On
Versions: 1 2 3 4 5 6 7 8 9 10 11 12
572
FTUS46 KPDT 230540
TAFPDT
TAF
KPDT 230540Z 2306/2406 14006KT P6SM SKC
     FM231900 14005KT P6SM FEW150 SCT200
     FM232000 28010G20KT P6SM SCT150 BKN200
     FM240300 24008KT P6SM VCSH SCT110 BKN130=

USA.gov is the U.S. government's official web portal to all federal, state and local government web resources and services.